sensor_id;sensor_type;location;lat;lon;timestamp;pressure;altitude;pressure_sealevel;temperature;humidity
44663;BME280;30381;52.754;18.258;2023-04-22T00:50:42;100820.06;;;5.61;84.69
44663;BME280;30381;52.754;18.258;2023-04-22T01:57:11;100823.35;;;4.81;87.25
44663;BME280;30381;52.754;18.258;2023-04-22T02:00:18;100823.11;;;4.73;87.49
44663;BME280;30381;52.754;18.258;2023-04-22T02:04:08;100819.41;;;4.68;87.78
44663;BME280;30381;52.754;18.258;2023-04-22T02:07:13;100819.22;;;4.65;88.03
44663;BME280;30381;52.754;18.258;2023-04-22T02:10:08;100819.43;;;4.62;88.13
44663;BME280;30381;52.754;18.258;2023-04-22T02:13:06;100817.91;;;4.59;88.26
44663;BME280;30381;52.754;18.258;2023-04-22T02:16:17;100817.46;;;4.54;88.18
44663;BME280;30381;52.754;18.258;2023-04-22T02:23:40;100816.81;;;4.46;88.97
44663;BME280;30381;52.754;18.258;2023-04-22T02:26:53;100810.86;;;4.45;89.18
44663;BME280;30381;52.754;18.258;2023-04-22T02:29:40;100811.39;;;4.44;89.38
44663;BME280;30381;52.754;18.258;2023-04-22T02:33:09;100807.08;;;4.41;89.47
44663;BME280;30381;52.754;18.258;2023-04-22T06:24:10;100759.98;;;18.95;62.26
44663;BME280;30381;52.754;18.258;2023-04-22T07:03:36;100752.62;;;20.43;56.63
44663;BME280;30381;52.754;18.258;2023-04-22T07:06:03;100752.20;;;20.31;56.55
44663;BME280;30381;52.754;18.258;2023-04-22T07:08:30;100751.33;;;20.41;56.48
44663;BME280;30381;52.754;18.258;2023-04-22T07:10:58;100751.35;;;20.50;56.85
44663;BME280;30381;52.754;18.258;2023-04-22T07:13:25;100751.90;;;20.74;57.11
44663;BME280;30381;52.754;18.258;2023-04-22T07:15:52;100754.80;;;21.07;57.14
44663;BME280;30381;52.754;18.258;2023-04-22T07:18:19;100751.73;;;21.25;56.11
44663;BME280;30381;52.754;18.258;2023-04-22T07:20:45;100751.94;;;21.20;55.47
44663;BME280;30381;52.754;18.258;2023-04-22T07:23:11;100751.52;;;21.02;55.45
44663;BME280;30381;52.754;18.258;2023-04-22T07:25:42;100749.45;;;21.18;55.21
44663;BME280;30381;52.754;18.258;2023-04-22T07:28:09;100751.16;;;21.01;54.09
44663;BME280;30381;52.754;18.258;2023-04-22T07:30:36;100749.30;;;20.97;54.25
44663;BME280;30381;52.754;18.258;2023-04-22T07:33:02;100754.95;;;21.04;53.51
44663;BME280;30381;52.754;18.258;2023-04-22T07:35:29;100749.84;;;21.01;53.24
44663;BME280;30381;52.754;18.258;2023-04-22T07:37:56;100744.84;;;21.10;53.14
44663;BME280;30381;52.754;18.258;2023-04-22T07:40:23;100745.52;;;21.06;52.66
44663;BME280;30381;52.754;18.258;2023-04-22T07:42:49;100748.10;;;21.02;52.47
44663;BME280;30381;52.754;18.258;2023-04-22T07:45:17;100746.41;;;21.09;52.60
44663;BME280;30381;52.754;18.258;2023-04-22T07:47:44;100744.31;;;21.17;51.97
44663;BME280;30381;52.754;18.258;2023-04-22T07:50:11;100742.66;;;21.25;51.82
44663;BME280;30381;52.754;18.258;2023-04-22T07:52:37;100742.30;;;21.15;51.07
44663;BME280;30381;52.754;18.258;2023-04-22T07:55:03;100737.88;;;21.06;51.03
44663;BME280;30381;52.754;18.258;2023-04-22T07:57:29;100735.84;;;21.09;50.34
44663;BME280;30381;52.754;18.258;2023-04-22T07:59:57;100737.73;;;21.10;50.60
44663;BME280;30381;52.754;18.258;2023-04-22T08:02:23;100733.70;;;21.25;50.67
44663;BME280;30381;52.754;18.258;2023-04-22T08:04:49;100738.27;;;21.36;50.60
44663;BME280;30381;52.754;18.258;2023-04-22T08:07:15;100736.46;;;21.31;50.25
44663;BME280;30381;52.754;18.258;2023-04-22T08:09:41;100738.86;;;21.40;50.20
44663;BME280;30381;52.754;18.258;2023-04-22T08:12:07;100736.11;;;21.37;49.82
44663;BME280;30381;52.754;18.258;2023-04-22T08:14:33;100734.75;;;21.28;49.31
44663;BME280;30381;52.754;18.258;2023-04-22T08:16:59;100737.30;;;21.18;49.26
44663;BME280;30381;52.754;18.258;2023-04-22T08:19:25;100735.79;;;21.09;49.30
44663;BME280;30381;52.754;18.258;2023-04-22T08:21:51;100738.98;;;20.93;48.59
44663;BME280;30381;52.754;18.258;2023-04-22T08:24:18;100738.14;;;20.78;48.74
44663;BME280;30381;52.754;18.258;2023-04-22T08:26:44;100740.54;;;20.79;48.87
44663;BME280;30381;52.754;18.258;2023-04-22T08:29:10;100738.10;;;20.71;48.42
44663;BME280;30381;52.754;18.258;2023-04-22T08:31:36;100735.85;;;20.67;48.25
44663;BME280;30381;52.754;18.258;2023-04-22T08:34:02;100737.52;;;20.60;48.74
44663;BME280;30381;52.754;18.258;2023-04-22T08:36:29;100737.33;;;20.87;49.19
44663;BME280;30381;52.754;18.258;2023-04-22T08:38:55;100738.88;;;20.95;48.43
44663;BME280;30381;52.754;18.258;2023-04-22T08:41:22;100738.56;;;20.95;48.12
44663;BME280;30381;52.754;18.258;2023-04-22T08:43:54;100740.22;;;20.82;47.98
44663;BME280;30381;52.754;18.258;2023-04-22T08:46:21;100739.31;;;20.77;48.12
44663;BME280;30381;52.754;18.258;2023-04-22T08:48:51;100736.33;;;20.91;48.01
44663;BME280;30381;52.754;18.258;2023-04-22T08:51:18;100735.33;;;20.91;47.73
44663;BME280;30381;52.754;18.258;2023-04-22T08:53:45;100732.02;;;21.08;47.66
44663;BME280;30381;52.754;18.258;2023-04-22T08:56:12;100732.13;;;21.07;47.18
44663;BME280;30381;52.754;18.258;2023-04-22T08:58:41;100737.33;;;21.03;47.53
44663;BME280;30381;52.754;18.258;2023-04-22T09:01:08;100728.52;;;21.17;47.27
44663;BME280;30381;52.754;18.258;2023-04-22T09:03:38;100728.19;;;21.15;47.14
44663;BME280;30381;52.754;18.258;2023-04-22T09:06:05;100725.70;;;21.19;47.06
44663;BME280;30381;52.754;18.258;2023-04-22T09:08:32;100723.35;;;21.14;46.90
44663;BME280;30381;52.754;18.258;2023-04-22T09:10:59;100721.88;;;21.13;46.46
44663;BME280;30381;52.754;18.258;2023-04-22T09:13:25;100721.09;;;21.17;46.70
44663;BME280;30381;52.754;18.258;2023-04-22T09:15:51;100722.51;;;21.18;46.66
44663;BME280;30381;52.754;18.258;2023-04-22T09:18:19;100720.21;;;21.20;46.69
44663;BME280;30381;52.754;18.258;2023-04-22T09:20:48;100719.20;;;21.22;46.58
44663;BME280;30381;52.754;18.258;2023-04-22T09:23:14;100719.61;;;21.17;46.21
44663;BME280;30381;52.754;18.258;2023-04-22T09:25:41;100718.44;;;21.21;46.44
44663;BME280;30381;52.754;18.258;2023-04-22T09:28:16;100712.45;;;21.32;46.50
44663;BME280;30381;52.754;18.258;2023-04-22T09:30:44;100711.30;;;21.37;46.12
44663;BME280;30381;52.754;18.258;2023-04-22T09:33:11;100711.17;;;21.41;45.92
44663;BME280;30381;52.754;18.258;2023-04-22T10:01:37;100678.30;;;22.66;44.31
44663;BME280;30381;52.754;18.258;2023-04-22T10:04:11;100670.66;;;22.58;43.84
44663;BME280;30381;52.754;18.258;2023-04-22T10:06:48;100673.73;;;22.61;44.07
44663;BME280;30381;52.754;18.258;2023-04-22T10:09:20;100670.09;;;22.61;43.55
44663;BME280;30381;52.754;18.258;2023-04-22T10:11:49;100668.29;;;22.54;43.64
44663;BME280;30381;52.754;18.258;2023-04-22T10:14:20;100670.08;;;22.44;42.76
44663;BME280;30381;52.754;18.258;2023-04-22T10:16:47;100665.73;;;22.23;42.28
44663;BME280;30381;52.754;18.258;2023-04-22T10:19:20;100665.49;;;22.25;42.73
44663;BME280;30381;52.754;18.258;2023-04-22T10:21:50;100663.20;;;22.38;42.88
44663;BME280;30381;52.754;18.258;2023-04-22T10:24:18;100662.77;;;22.43;42.08
44663;BME280;30381;52.754;18.258;2023-04-22T10:26:54;100660.34;;;22.24;41.28
44663;BME280;30381;52.754;18.258;2023-04-22T10:29:26;100656.23;;;21.91;40.68
44663;BME280;30381;52.754;18.258;2023-04-22T10:50:35;100638.06;;;22.06;40.52
44663;BME280;30381;52.754;18.258;2023-04-22T12:27:09;100581.82;;;22.12;37.99
44663;BME280;30381;52.754;18.258;2023-04-22T12:29:55;100572.80;;;22.11;38.39
44663;BME280;30381;52.754;18.258;2023-04-22T12:32:25;100565.64;;;22.24;38.06
44663;BME280;30381;52.754;18.258;2023-04-22T12:35:32;100559.90;;;22.23;37.99
44663;BME280;30381;52.754;18.258;2023-04-22T12:39:02;100561.73;;;22.03;37.15
44663;BME280;30381;52.754;18.258;2023-04-22T12:41:42;100556.20;;;21.98;37.14
44663;BME280;30381;52.754;18.258;2023-04-22T12:44:08;100559.45;;;21.91;36.52
44663;BME280;30381;52.754;18.258;2023-04-22T12:46:34;100559.27;;;21.67;36.47
44663;BME280;30381;52.754;18.258;2023-04-22T12:49:01;100557.69;;;21.66;36.71
44663;BME280;30381;52.754;18.258;2023-04-22T12:51:27;100556.09;;;21.61;36.41
44663;BME280;30381;52.754;18.258;2023-04-22T12:53:53;100548.40;;;21.48;36.76
44663;BME280;30381;52.754;18.258;2023-04-22T12:56:19;100544.27;;;21.44;37.02
44663;BME280;30381;52.754;18.258;2023-04-22T12:58:46;100541.42;;;21.56;37.22
44663;BME280;30381;52.754;18.258;2023-04-22T13:01:12;100532.81;;;21.75;37.17
44663;BME280;30381;52.754;18.258;2023-04-22T13:03:38;100528.13;;;21.92;37.34
44663;BME280;30381;52.754;18.258;2023-04-22T13:06:06;100525.40;;;22.09;37.19
44663;BME280;30381;52.754;18.258;2023-04-22T13:08:34;100523.31;;;22.17;37.14
44663;BME280;30381;52.754;18.258;2023-04-22T13:11:00;100524.23;;;22.22;36.79
44663;BME280;30381;52.754;18.258;2023-04-22T13:13:28;100518.02;;;22.00;36.40
44663;BME280;30381;52.754;18.258;2023-04-22T13:15:56;100518.43;;;21.89;36.78
44663;BME280;30381;52.754;18.258;2023-04-22T13:18:22;100524.52;;;21.94;36.83
44663;BME280;30381;52.754;18.258;2023-04-22T13:20:48;100521.42;;;22.01;36.91
44663;BME280;30381;52.754;18.258;2023-04-22T13:23:14;100520.78;;;22.11;36.77
44663;BME280;30381;52.754;18.258;2023-04-22T13:25:42;100517.03;;;22.16;36.75
44663;BME280;30381;52.754;18.258;2023-04-22T13:28:09;100517.66;;;22.25;37.07
44663;BME280;30381;52.754;18.258;2023-04-22T13:33:57;100512.11;;;22.43;36.83
44663;BME280;30381;52.754;18.258;2023-04-22T13:36:50;100506.93;;;22.51;36.80
44663;BME280;30381;52.754;18.258;2023-04-22T13:43:29;100504.66;;;22.67;36.86
44663;BME280;30381;52.754;18.258;2023-04-22T13:46:59;100502.29;;;22.67;36.79
44663;BME280;30381;52.754;18.258;2023-04-22T14:18:31;100481.50;;;22.07;36.32
44663;BME280;30381;52.754;18.258;2023-04-22T14:21:31;100474.92;;;22.11;36.40
44663;BME280;30381;52.754;18.258;2023-04-22T14:28:26;100472.06;;;22.10;36.21
44663;BME280;30381;52.754;18.258;2023-04-22T14:39:08;100463.14;;;22.08;36.33
44663;BME280;30381;52.754;18.258;2023-04-22T14:41:53;100460.39;;;22.06;36.51
44663;BME280;30381;52.754;18.258;2023-04-22T14:44:47;100453.48;;;22.01;36.46
44663;BME280;30381;52.754;18.258;2023-04-22T14:47:17;100454.55;;;21.96;36.49
44663;BME280;30381;52.754;18.258;2023-04-22T14:49:45;100444.83;;;21.92;36.69
44663;BME280;30381;52.754;18.258;2023-04-22T14:52:18;100444.61;;;21.83;36.67
44663;BME280;30381;52.754;18.258;2023-04-22T14:54:49;100444.09;;;21.80;36.91
44663;BME280;30381;52.754;18.258;2023-04-22T14:57:24;100442.16;;;21.75;36.81
44663;BME280;30381;52.754;18.258;2023-04-22T15:00:04;100440.65;;;21.70;36.75
44663;BME280;30381;52.754;18.258;2023-04-22T15:02:33;100438.54;;;21.65;36.86
44663;BME280;30381;52.754;18.258;2023-04-22T15:05:04;100437.25;;;21.52;36.89
44663;BME280;30381;52.754;18.258;2023-04-22T15:07:38;100436.55;;;21.41;36.92
44663;BME280;30381;52.754;18.258;2023-04-22T15:10:20;100430.79;;;21.40;36.85
44663;BME280;30381;52.754;18.258;2023-04-22T15:12:55;100428.44;;;21.42;37.08
44663;BME280;30381;52.754;18.258;2023-04-22T15:15:43;100420.80;;;21.41;37.18
44663;BME280;30381;52.754;18.258;2023-04-22T15:18:39;100421.69;;;21.34;36.95
44663;BME280;30381;52.754;18.258;2023-04-22T15:21:12;100421.96;;;21.21;36.96
44663;BME280;30381;52.754;18.258;2023-04-22T15:23:45;100422.98;;;21.08;37.02
44663;BME280;30381;52.754;18.258;2023-04-22T15:26:33;100424.05;;;20.96;36.88
44663;BME280;30381;52.754;18.258;2023-04-22T15:29:18;100419.95;;;20.77;37.30
44663;BME280;30381;52.754;18.258;2023-04-22T15:32:09;100422.27;;;20.71;37.34
44663;BME280;30381;52.754;18.258;2023-04-22T15:35:21;100416.05;;;20.59;37.32
44663;BME280;30381;52.754;18.258;2023-04-22T15:38:04;100417.95;;;20.53;37.33
44663;BME280;30381;52.754;18.258;2023-04-22T15:40:35;100418.98;;;20.47;37.55
44663;BME280;30381;52.754;18.258;2023-04-22T15:43:19;100414.80;;;20.46;37.63
44663;BME280;30381;52.754;18.258;2023-04-22T15:45:46;100419.80;;;20.45;37.53
44663;BME280;30381;52.754;18.258;2023-04-22T15:48:30;100416.39;;;20.41;37.83
44663;BME280;30381;52.754;18.258;2023-04-22T15:51:14;100416.63;;;20.34;37.75
44663;BME280;30381;52.754;18.258;2023-04-22T15:53:45;100418.23;;;20.32;37.64
44663;BME280;30381;52.754;18.258;2023-04-22T15:56:35;100416.88;;;20.29;37.60
44663;BME280;30381;52.754;18.258;2023-04-22T15:59:10;100413.27;;;20.22;37.74
44663;BME280;30381;52.754;18.258;2023-04-22T16:01:49;100415.77;;;20.21;37.84
44663;BME280;30381;52.754;18.258;2023-04-22T16:04:27;100410.79;;;20.20;37.92
44663;BME280;30381;52.754;18.258;2023-04-22T16:06:58;100408.73;;;20.15;37.87
44663;BME280;30381;52.754;18.258;2023-04-22T16:09:42;100406.36;;;20.04;38.05
44663;BME280;30381;52.754;18.258;2023-04-22T16:12:25;100405.48;;;20.01;38.16
44663;BME280;30381;52.754;18.258;2023-04-22T16:15:14;100401.98;;;19.98;38.04
44663;BME280;30381;52.754;18.258;2023-04-22T16:17:53;100399.52;;;19.95;38.11
44663;BME280;30381;52.754;18.258;2023-04-22T16:20:30;100403.26;;;19.92;37.99
44663;BME280;30381;52.754;18.258;2023-04-22T16:23:27;100402.19;;;19.84;38.34
44663;BME280;30381;52.754;18.258;2023-04-22T16:26:16;100399.12;;;19.77;38.53
44663;BME280;30381;52.754;18.258;2023-04-22T16:28:51;100396.67;;;19.73;38.58
44663;BME280;30381;52.754;18.258;2023-04-22T16:31:34;100400.39;;;19.65;38.66
44663;BME280;30381;52.754;18.258;2023-04-22T16:34:04;100401.65;;;19.58;38.77
44663;BME280;30381;52.754;18.258;2023-04-22T16:36:54;100397.08;;;19.50;38.77
44663;BME280;30381;52.754;18.258;2023-04-22T16:39:31;100392.63;;;19.39;38.78
44663;BME280;30381;52.754;18.258;2023-04-22T16:42:11;100391.75;;;19.29;38.96
44663;BME280;30381;52.754;18.258;2023-04-22T16:44:47;100388.52;;;19.22;39.14
44663;BME280;30381;52.754;18.258;2023-04-22T16:47:14;100387.45;;;19.17;39.46
44663;BME280;30381;52.754;18.258;2023-04-22T16:49:41;100387.38;;;19.11;39.48
44663;BME280;30381;52.754;18.258;2023-04-22T16:52:10;100391.70;;;19.05;39.61
44663;BME280;30381;52.754;18.258;2023-04-22T16:54:40;100385.27;;;18.98;39.77
44663;BME280;30381;52.754;18.258;2023-04-22T16:57:20;100383.52;;;18.91;39.96
44663;BME280;30381;52.754;18.258;2023-04-22T16:59:52;100383.46;;;18.84;40.11
44663;BME280;30381;52.754;18.258;2023-04-22T17:02:24;100388.23;;;18.79;40.24
44663;BME280;30381;52.754;18.258;2023-04-22T17:05:12;100386.85;;;18.72;40.53
44663;BME280;30381;52.754;18.258;2023-04-22T17:08:10;100381.92;;;18.65;40.68
44663;BME280;30381;52.754;18.258;2023-04-22T17:10:43;100383.94;;;18.57;40.84
44663;BME280;30381;52.754;18.258;2023-04-22T17:13:29;100383.09;;;18.49;41.18
44663;BME280;30381;52.754;18.258;2023-04-22T17:16:04;100380.60;;;18.42;41.40
44663;BME280;30381;52.754;18.258;2023-04-22T17:18:48;100381.31;;;18.33;41.68
44663;BME280;30381;52.754;18.258;2023-04-22T17:21:17;100376.77;;;18.24;41.88
44663;BME280;30381;52.754;18.258;2023-04-22T17:23:43;100375.86;;;18.13;42.15
44663;BME280;30381;52.754;18.258;2023-04-22T17:26:11;100374.77;;;18.02;42.28
44663;BME280;30381;52.754;18.258;2023-04-22T17:28:40;100368.61;;;17.92;42.39
44663;BME280;30381;52.754;18.258;2023-04-22T17:31:14;100371.56;;;17.82;42.64
44663;BME280;30381;52.754;18.258;2023-04-22T17:33:56;100370.26;;;17.70;42.85
44663;BME280;30381;52.754;18.258;2023-04-22T17:36:30;100368.27;;;17.60;42.91
44663;BME280;30381;52.754;18.258;2023-04-22T17:39:01;100372.71;;;17.50;43.10
44663;BME280;30381;52.754;18.258;2023-04-22T17:41:35;100371.83;;;17.40;43.30
44663;BME280;30381;52.754;18.258;2023-04-22T17:44:04;100373.45;;;17.30;43.59
44663;BME280;30381;52.754;18.258;2023-04-22T17:46:52;100373.85;;;17.19;43.95
44663;BME280;30381;52.754;18.258;2023-04-22T17:49:25;100374.05;;;17.07;44.18
44663;BME280;30381;52.754;18.258;2023-04-22T17:52:00;100379.55;;;16.95;44.42
44663;BME280;30381;52.754;18.258;2023-04-22T17:54:33;100381.32;;;16.84;44.62
44663;BME280;30381;52.754;18.258;2023-04-22T17:57:18;100381.33;;;16.70;44.84
44663;BME280;30381;52.754;18.258;2023-04-22T17:59:59;100385.53;;;16.57;45.04
44663;BME280;30381;52.754;18.258;2023-04-22T18:02:49;100381.99;;;16.44;45.29
44663;BME280;30381;52.754;18.258;2023-04-22T18:05:24;100384.66;;;16.31;45.62
44663;BME280;30381;52.754;18.258;2023-04-22T18:08:07;100389.34;;;16.19;45.94
44663;BME280;30381;52.754;18.258;2023-04-22T18:10:40;100389.66;;;16.06;46.26
44663;BME280;30381;52.754;18.258;2023-04-22T18:13:24;100391.91;;;15.95;46.49
44663;BME280;30381;52.754;18.258;2023-04-22T18:16:00;100390.64;;;15.83;46.72
44663;BME280;30381;52.754;18.258;2023-04-22T18:18:34;100390.60;;;15.74;47.05
44663;BME280;30381;52.754;18.258;2023-04-22T18:21:05;100389.36;;;15.63;47.26
44663;BME280;30381;52.754;18.258;2023-04-22T18:23:38;100387.08;;;15.53;47.52
44663;BME280;30381;52.754;18.258;2023-04-22T18:26:10;100385.52;;;15.42;47.89
44663;BME280;30381;52.754;18.258;2023-04-22T18:28:45;100388.37;;;15.31;48.30
44663;BME280;30381;52.754;18.258;2023-04-22T18:31:12;100394.68;;;15.21;48.63
44663;BME280;30381;52.754;18.258;2023-04-22T18:33:44;100395.92;;;15.08;48.84
44663;BME280;30381;52.754;18.258;2023-04-22T18:36:16;100397.42;;;14.97;49.44
44663;BME280;30381;52.754;18.258;2023-04-22T18:38:44;100400.23;;;14.84;49.76
44663;BME280;30381;52.754;18.258;2023-04-22T18:41:15;100398.95;;;14.72;50.17
44663;BME280;30381;52.754;18.258;2023-04-22T18:43:54;100403.33;;;14.59;50.59
44663;BME280;30381;52.754;18.258;2023-04-22T18:46:24;100402.73;;;14.47;51.13
44663;BME280;30381;52.754;18.258;2023-04-22T18:48:57;100406.23;;;14.38;51.45
44663;BME280;30381;52.754;18.258;2023-04-22T18:51:31;100403.81;;;14.28;51.90
44663;BME280;30381;52.754;18.258;2023-04-22T18:54:01;100400.08;;;14.17;52.17
44663;BME280;30381;52.754;18.258;2023-04-22T18:56:28;100401.54;;;14.06;52.59
44663;BME280;30381;52.754;18.258;2023-04-22T18:59:15;100400.77;;;13.94;53.04
44663;BME280;30381;52.754;18.258;2023-04-22T19:01:57;100400.84;;;13.81;53.45
44663;BME280;30381;52.754;18.258;2023-04-22T19:04:48;100394.83;;;13.67;53.93
44663;BME280;30381;52.754;18.258;2023-04-22T19:07:56;100393.23;;;13.56;54.45
44663;BME280;30381;52.754;18.258;2023-04-22T19:10:45;100388.20;;;13.44;54.91
44663;BME280;30381;52.754;18.258;2023-04-22T19:13:41;100389.58;;;13.33;55.38
44663;BME280;30381;52.754;18.258;2023-04-22T19:16:09;100392.06;;;13.25;55.86
44663;BME280;30381;52.754;18.258;2023-04-22T19:35:37;100385.55;;;13.05;58.49
44663;BME280;30381;52.754;18.258;2023-04-22T19:38:10;100385.82;;;12.94;58.89
44663;BME280;30381;52.754;18.258;2023-04-22T19:41:01;100381.95;;;12.80;59.31
44663;BME280;30381;52.754;18.258;2023-04-22T19:43:33;100382.48;;;12.70;59.55
44663;BME280;30381;52.754;18.258;2023-04-22T19:46:05;100378.41;;;12.59;59.92
44663;BME280;30381;52.754;18.258;2023-04-22T19:48:43;100377.81;;;12.50;60.29
44663;BME280;30381;52.754;18.258;2023-04-22T19:51:29;100380.08;;;12.39;60.65
44663;BME280;30381;52.754;18.258;2023-04-22T19:54:05;100382.05;;;12.31;60.86
44663;BME280;30381;52.754;18.258;2023-04-22T19:57:02;100381.63;;;12.23;61.10
44663;BME280;30381;52.754;18.258;2023-04-22T19:59:34;100376.41;;;12.14;61.61
44663;BME280;30381;52.754;18.258;2023-04-22T20:02:02;100380.76;;;12.06;62.00
44663;BME280;30381;52.754;18.258;2023-04-22T20:04:59;100380.15;;;11.98;62.25
44663;BME280;30381;52.754;18.258;2023-04-22T20:11:57;100381.52;;;11.73;63.40
44663;BME280;30381;52.754;18.258;2023-04-22T20:15:47;100380.56;;;11.60;63.81
44663;BME280;30381;52.754;18.258;2023-04-22T20:30:07;100370.55;;;11.10;65.95
44663;BME280;30381;52.754;18.258;2023-04-22T20:33:34;100373.71;;;10.99;66.50
44663;BME280;30381;52.754;18.258;2023-04-22T20:37:11;100371.30;;;10.88;67.07
44663;BME280;30381;52.754;18.258;2023-04-22T20:42:59;100378.05;;;10.72;68.00
44663;BME280;30381;52.754;18.258;2023-04-22T20:46:18;100380.21;;;10.64;68.55
44663;BME280;30381;52.754;18.258;2023-04-22T21:00:04;100370.73;;;10.29;70.24
44663;BME280;30381;52.754;18.258;2023-04-22T21:02:42;100367.33;;;10.21;70.27
44663;BME280;30381;52.754;18.258;2023-04-22T21:05:12;100369.98;;;10.13;70.54
44663;BME280;30381;52.754;18.258;2023-04-22T21:07:56;100368.70;;;10.05;70.82
44663;BME280;30381;52.754;18.258;2023-04-22T21:10:33;100371.23;;;9.97;71.16
44663;BME280;30381;52.754;18.258;2023-04-22T21:13:06;100370.36;;;9.90;71.31
44663;BME280;30381;52.754;18.258;2023-04-22T21:15:32;100370.06;;;9.84;71.69
44663;BME280;30381;52.754;18.258;2023-04-22T21:18:17;100368.20;;;9.77;72.16
44663;BME280;30381;52.754;18.258;2023-04-22T21:21:12;100363.41;;;9.71;72.53
44663;BME280;30381;52.754;18.258;2023-04-22T21:24:17;100366.73;;;9.65;72.88
44663;BME280;30381;52.754;18.258;2023-04-22T21:27:00;100371.02;;;9.59;73.32
44663;BME280;30381;52.754;18.258;2023-04-22T21:29:32;100370.60;;;9.55;73.58
44663;BME280;30381;52.754;18.258;2023-04-22T21:32:00;100372.36;;;9.52;73.94
44663;BME280;30381;52.754;18.258;2023-04-22T21:34:58;100371.35;;;9.48;74.54
44663;BME280;30381;52.754;18.258;2023-04-22T21:37:47;100371.19;;;9.43;74.84
44663;BME280;30381;52.754;18.258;2023-04-22T21:40:33;100368.36;;;9.38;75.05
44663;BME280;30381;52.754;18.258;2023-04-22T21:43:12;100366.91;;;9.34;75.50
44663;BME280;30381;52.754;18.258;2023-04-22T21:45:38;100363.52;;;9.29;75.58
44663;BME280;30381;52.754;18.258;2023-04-22T21:48:06;100366.69;;;9.25;76.00
44663;BME280;30381;52.754;18.258;2023-04-22T21:50:33;100367.71;;;9.20;76.31
44663;BME280;30381;52.754;18.258;2023-04-22T21:52:59;100370.20;;;9.16;76.51
44663;BME280;30381;52.754;18.258;2023-04-22T21:55:26;100365.68;;;9.12;76.67
44663;BME280;30381;52.754;18.258;2023-04-22T21:57:53;100367.65;;;9.08;76.94
44663;BME280;30381;52.754;18.258;2023-04-22T22:00:25;100367.67;;;9.05;77.31
44663;BME280;30381;52.754;18.258;2023-04-22T22:02:51;100370.03;;;9.02;77.52
44663;BME280;30381;52.754;18.258;2023-04-22T22:05:18;100368.62;;;9.00;77.73
44663;BME280;30381;52.754;18.258;2023-04-22T22:07:49;100370.11;;;8.97;78.02
44663;BME280;30381;52.754;18.258;2023-04-22T22:10:19;100372.36;;;8.94;78.38
44663;BME280;30381;52.754;18.258;2023-04-22T22:12:50;100370.29;;;8.91;78.63
44663;BME280;30381;52.754;18.258;2023-04-22T22:15:16;100373.11;;;8.88;78.96
44663;BME280;30381;52.754;18.258;2023-04-22T22:17:47;100371.98;;;8.84;79.27
44663;BME280;30381;52.754;18.258;2023-04-22T22:20:27;100370.56;;;8.79;79.51
44663;BME280;30381;52.754;18.258;2023-04-22T22:23:12;100367.39;;;8.71;79.56
44663;BME280;30381;52.754;18.258;2023-04-22T22:26:22;100368.02;;;8.65;79.96
44663;BME280;30381;52.754;18.258;2023-04-22T22:29:05;100367.27;;;8.60;80.31
44663;BME280;30381;52.754;18.258;2023-04-22T22:32:20;100363.83;;;8.57;80.48
44663;BME280;30381;52.754;18.258;2023-04-22T22:35:25;100358.39;;;8.51;80.95
44663;BME280;30381;52.754;18.258;2023-04-22T22:38:24;100362.40;;;8.48;81.21
44663;BME280;30381;52.754;18.258;2023-04-22T22:41:32;100362.62;;;8.45;81.31
44663;BME280;30381;52.754;18.258;2023-04-22T22:48:05;100360.25;;;8.37;81.97
44663;BME280;30381;52.754;18.258;2023-04-22T22:57:26;100359.11;;;8.18;82.16
44663;BME280;30381;52.754;18.258;2023-04-22T23:00:14;100358.90;;;8.12;82.42
44663;BME280;30381;52.754;18.258;2023-04-22T23:02:53;100356.27;;;8.07;82.65
44663;BME280;30381;52.754;18.258;2023-04-22T23:05:32;100355.69;;;8.00;82.87
44663;BME280;30381;52.754;18.258;2023-04-22T23:07:59;100354.42;;;7.96;83.39
44663;BME280;30381;52.754;18.258;2023-04-22T23:10:27;100358.77;;;7.92;83.76
44663;BME280;30381;52.754;18.258;2023-04-22T23:13:00;100354.91;;;7.89;83.76
44663;BME280;30381;52.754;18.258;2023-04-22T23:18:38;100355.53;;;7.81;84.35
44663;BME280;30381;52.754;18.258;2023-04-22T23:21:23;100353.85;;;7.76;84.64
44663;BME280;30381;52.754;18.258;2023-04-22T23:24:19;100349.96;;;7.72;84.83
44663;BME280;30381;52.754;18.258;2023-04-22T23:26:55;100346.38;;;7.66;84.83
44663;BME280;30381;52.754;18.258;2023-04-22T23:29:31;100345.52;;;7.61;85.07
44663;BME280;30381;52.754;18.258;2023-04-22T23:32:19;100344.17;;;7.56;85.43
44663;BME280;30381;52.754;18.258;2023-04-22T23:34:48;100340.09;;;7.51;85.61
44663;BME280;30381;52.754;18.258;2023-04-22T23:37:30;100338.48;;;7.45;85.77
44663;BME280;30381;52.754;18.258;2023-04-22T23:39:58;100340.65;;;7.41;86.30
44663;BME280;30381;52.754;18.258;2023-04-22T23:42:24;100336.95;;;7.38;86.40
44663;BME280;30381;52.754;18.258;2023-04-22T23:45:13;100334.94;;;7.35;86.92
44663;BME280;30381;52.754;18.258;2023-04-22T23:48:06;100330.78;;;7.33;87.16
44663;BME280;30381;52.754;18.258;2023-04-22T23:51:04;100329.03;;;7.30;87.30
44663;BME280;30381;52.754;18.258;2023-04-22T23:53:30;100324.03;;;7.29;87.56
44663;BME280;30381;52.754;18.258;2023-04-22T23:56:28;100325.18;;;7.26;87.78
44663;BME280;30381;52.754;18.258;2023-04-22T23:58:57;100321.02;;;7.24;87.77
